Time;durP1;ratioP1;P1;durP2;ratioP2;P2;SDS_P1;SDS_P2;PMS_P1;PMS_P2;Temp;Humidity;BMP_temperature;BMP_pressure;BME280_temperature;BME280_humidity;BME280_pressure;Samples;Min_cycle;Max_cycle;Signal;HPM_P1;HPM_P2
2023/12/06 00:01:57;;;;;;;1117.40;998.33;;;2.40;99.90;;;;;;5015411;28;20518;-78
2023/12/06 00:04:24;;;;;;;1116.00;996.90;;;2.40;99.90;;;;;;5015872;28;20507;-78
2023/12/06 00:06:53;;;;;;;1088.20;969.50;;;2.40;99.90;;;;;;5015546;28;20567;-78
2023/12/06 00:09:19;;;;;;;1090.33;974.93;;;2.40;99.90;;;;;;5015694;28;20455;-78
2023/12/06 00:11:46;;;;;;;1134.27;999.90;;;2.40;99.90;;;;;;5015226;28;20952;-78
2023/12/06 00:14:13;;;;;;;1116.10;999.90;;;2.40;99.90;;;;;;5015317;28;20536;-77
2023/12/06 00:16:40;;;;;;;1100.37;989.80;;;2.40;99.90;;;;;;5015217;28;20451;-77
2023/12/06 00:19:08;;;;;;;1085.67;976.63;;;2.30;99.90;;;;;;5015323;28;20479;-77
2023/12/06 00:21:35;;;;;;;1085.87;977.73;;;2.30;99.90;;;;;;5015362;28;20452;-77
2023/12/06 00:24:04;;;;;;;1086.40;976.40;;;2.30;99.90;;;;;;5015348;28;20461;-77
2023/12/06 00:26:31;;;;;;;1094.17;983.47;;;2.30;99.90;;;;;;5015032;28;20478;-77
2023/12/06 00:28:58;;;;;;;1063.03;954.17;;;2.20;99.90;;;;;;5015156;28;20501;-77
2023/12/06 00:31:25;;;;;;;1067.73;959.17;;;2.30;99.90;;;;;;5014776;28;20459;-77
2023/12/06 00:33:52;;;;;;;1068.90;958.80;;;2.20;99.90;;;;;;5014835;28;20463;-77
2023/12/06 00:36:19;;;;;;;1058.30;949.93;;;2.20;99.90;;;;;;5015035;28;20446;-77
2023/12/06 00:38:46;;;;;;;1060.50;951.60;;;2.20;99.90;;;;;;5015155;28;20452;-77
2023/12/06 00:41:14;;;;;;;1058.33;948.23;;;2.20;99.90;;;;;;5014786;28;20455;-77
2023/12/06 00:43:41;;;;;;;1047.67;939.27;;;2.20;99.90;;;;;;5014592;28;21064;-77
2023/12/06 00:46:08;;;;;;;1032.23;923.90;;;2.20;99.90;;;;;;5014646;28;21013;-77
2023/12/06 00:48:35;;;;;;;1035.43;926.70;;;2.20;99.90;;;;;;5014973;28;20485;-77
2023/12/06 00:51:02;;;;;;;1023.13;914.27;;;2.20;99.90;;;;;;5014361;28;20485;-77
2023/12/06 00:53:30;;;;;;;1062.27;952.20;;;2.20;99.90;;;;;;5014794;28;20456;-78
2023/12/06 00:55:56;;;;;;;1040.47;931.17;;;2.20;99.90;;;;;;5014479;28;20476;-77
2023/12/06 00:58:25;;;;;;;1044.47;934.43;;;2.20;99.90;;;;;;5014333;28;20890;-77
2023/12/06 01:00:51;;;;;;;1069.17;957.53;;;2.20;99.90;;;;;;5013708;28;20453;-77
2023/12/06 01:03:18;;;;;;;1073.80;960.30;;;2.20;99.90;;;;;;5014491;28;20456;-77
2023/12/06 01:05:45;;;;;;;1066.70;954.93;;;2.20;99.90;;;;;;5014358;28;20487;-77
2023/12/06 01:08:12;;;;;;;1069.37;957.70;;;2.10;99.90;;;;;;5014441;28;20770;-77
2023/12/06 01:10:42;;;;;;;1063.13;953.80;;;2.10;99.90;;;;;;5014165;28;20541;-77
2023/12/06 01:13:09;;;;;;;1049.30;940.70;;;2.20;99.90;;;;;;5014878;28;20528;-77
2023/12/06 01:15:37;;;;;;;1074.80;964.27;;;2.20;99.90;;;;;;5014008;28;20455;-77
2023/12/06 01:18:04;;;;;;;1068.60;958.30;;;2.10;99.90;;;;;;5014157;28;20457;-77
2023/12/06 01:20:31;;;;;;;1061.13;949.43;;;2.20;99.90;;;;;;5014016;28;20936;-77
2023/12/06 01:22:58;;;;;;;1056.93;944.63;;;2.10;99.90;;;;;;5013903;28;20856;-77
2023/12/06 01:25:25;;;;;;;1052.67;945.10;;;2.20;99.90;;;;;;5013875;28;20551;-77
2023/12/06 01:27:52;;;;;;;1069.40;960.13;;;2.20;99.90;;;;;;5013743;28;20483;-77
2023/12/06 01:30:19;;;;;;;1049.33;942.80;;;2.10;99.90;;;;;;5013856;28;20957;-77
2023/12/06 01:32:48;;;;;;;1063.37;955.27;;;2.20;99.90;;;;;;5013463;28;20459;-77
2023/12/06 01:35:15;;;;;;;1083.13;972.53;;;2.10;99.90;;;;;;5013800;28;20547;-77
2023/12/06 01:37:42;;;;;;;1062.93;952.87;;;2.20;99.90;;;;;;5013743;28;20470;-77
2023/12/06 01:40:09;;;;;;;1084.33;973.10;;;2.20;99.90;;;;;;5013902;28;20546;-77
2023/12/06 01:42:36;;;;;;;1074.50;963.40;;;2.20;99.90;;;;;;5013654;28;20462;-77
2023/12/06 01:45:04;;;;;;;1031.97;920.93;;;2.10;99.90;;;;;;5013730;28;20542;-77
2023/12/06 01:47:31;;;;;;;1057.07;944.07;;;2.20;99.90;;;;;;5013639;28;20509;-77
2023/12/06 01:50:02;;;;;;;1060.90;949.10;;;2.10;99.90;;;;;;5013493;28;20456;-77
2023/12/06 01:52:29;;;;;;;1039.70;929.30;;;2.00;99.90;;;;;;5013137;28;20449;-77
2023/12/06 01:54:58;;;;;;;1062.90;953.23;;;2.10;99.90;;;;;;5013443;28;20464;-76
2023/12/06 01:57:25;;;;;;;1073.30;959.73;;;2.10;99.90;;;;;;5013423;28;20845;-76
2023/12/06 01:59:55;;;;;;;1076.93;960.83;;;2.10;99.90;;;;;;5013404;28;20534;-76
2023/12/06 02:02:22;;;;;;;1084.87;966.50;;;1.90;99.90;;;;;;5013445;28;20454;-76
2023/12/06 02:04:49;;;;;;;1067.90;953.40;;;1.90;99.90;;;;;;5013087;28;20459;-77
2023/12/06 02:07:18;;;;;;;1067.97;952.00;;;1.90;99.90;;;;;;5012701;28;20997;-76
2023/12/06 02:09:45;;;;;;;1070.53;954.47;;;1.90;99.90;;;;;;5012929;28;20481;-76
2023/12/06 02:12:12;;;;;;;1073.23;955.60;;;1.90;99.90;;;;;;5012516;28;20450;-76
2023/12/06 02:14:39;;;;;;;1052.63;938.57;;;2.10;99.90;;;;;;5013191;28;20450;-75
2023/12/06 02:17:09;;;;;;;1063.13;947.80;;;2.00;99.90;;;;;;5012899;28;20434;-75
2023/12/06 02:19:36;;;;;;;1054.30;940.13;;;1.90;99.90;;;;;;5012590;28;20478;-75
2023/12/06 02:22:03;;;;;;;1056.73;942.17;;;2.10;99.90;;;;;;5012807;28;20451;-75
2023/12/06 02:24:32;;;;;;;1059.03;943.30;;;2.00;99.90;;;;;;5012956;28;20823;-75
2023/12/06 02:27:00;;;;;;;1047.07;936.03;;;2.10;99.90;;;;;;5012546;28;20570;-75
2023/12/06 02:29:27;;;;;;;1035.30;923.77;;;2.10;99.90;;;;;;5012751;28;20449;-75
2023/12/06 02:31:54;;;;;;;1047.27;934.40;;;2.10;99.90;;;;;;5012271;28;20450;-74
2023/12/06 02:34:24;;;;;;;1033.00;923.10;;;2.10;99.90;;;;;;5012456;28;20463;-74
2023/12/06 02:36:56;;;;;;;1036.30;931.00;;;2.10;99.90;;;;;;5012485;28;20957;-74
2023/12/06 02:39:24;;;;;;;1006.57;905.37;;;2.00;99.90;;;;;;5012647;28;20454;-74
2023/12/06 02:41:50;;;;;;;1028.57;927.07;;;2.00;99.90;;;;;;5012231;28;20550;-74
2023/12/06 02:44:19;;;;;;;1031.60;928.10;;;2.00;99.90;;;;;;5012364;28;20539;-74
2023/12/06 02:46:46;;;;;;;1018.50;917.07;;;2.00;99.90;;;;;;5012131;28;20481;-74
2023/12/06 02:49:13;;;;;;;1022.07;921.50;;;2.00;99.90;;;;;;5012422;28;20460;-74
2023/12/06 02:51:40;;;;;;;1012.20;913.43;;;2.10;99.90;;;;;;5012202;28;20793;-74
2023/12/06 02:54:07;;;;;;;990.73;891.97;;;2.00;99.90;;;;;;5012240;28;20545;-74
2023/12/06 02:56:34;;;;;;;998.33;897.83;;;2.10;99.90;;;;;;5012129;28;20493;-74
2023/12/06 02:59:01;;;;;;;998.93;899.50;;;2.10;99.90;;;;;;5012153;28;20456;-74
2023/12/06 03:01:29;;;;;;;987.20;888.77;;;2.10;99.90;;;;;;5011796;28;20495;-74
2023/12/06 03:03:56;;;;;;;975.13;878.73;;;2.10;99.90;;;;;;5012220;28;20449;-74
2023/12/06 03:06:22;;;;;;;978.30;879.90;;;2.10;99.90;;;;;;5011992;28;20453;-74
2023/12/06 03:08:49;;;;;;;973.20;875.50;;;2.10;99.90;;;;;;5012003;28;20941;-74
2023/12/06 03:11:16;;;;;;;958.70;863.30;;;2.10;99.90;;;;;;5011718;28;21027;-74
2023/12/06 03:13:43;;;;;;;969.00;872.50;;;2.10;99.90;;;;;;5011868;28;20525;-74
2023/12/06 03:16:10;;;;;;;954.13;858.20;;;2.10;99.90;;;;;;5011866;28;20463;-74
2023/12/06 03:18:38;;;;;;;944.87;850.30;;;2.10;99.90;;;;;;5012021;28;20834;-74
2023/12/06 03:21:06;;;;;;;948.30;852.70;;;2.10;99.90;;;;;;5011951;28;20877;-74
2023/12/06 03:23:33;;;;;;;965.17;869.57;;;2.10;99.90;;;;;;5011370;28;20463;-74
2023/12/06 03:26:00;;;;;;;968.20;871.53;;;2.10;99.90;;;;;;5011755;28;21022;-74
2023/12/06 03:28:27;;;;;;;951.80;858.33;;;2.10;99.90;;;;;;5011701;28;20521;-74
2023/12/06 03:30:53;;;;;;;964.20;868.90;;;2.10;99.90;;;;;;5011529;28;20453;-74
2023/12/06 03:33:20;;;;;;;947.80;852.60;;;2.10;99.90;;;;;;5011500;28;20469;-74
2023/12/06 03:35:49;;;;;;;954.40;858.90;;;2.10;99.90;;;;;;5011707;28;20884;-74
2023/12/06 03:38:15;;;;;;;956.63;862.07;;;2.10;99.90;;;;;;5011749;28;20946;-74
2023/12/06 03:40:43;;;;;;;972.13;875.33;;;2.10;99.90;;;;;;5011693;28;20461;-74
2023/12/06 03:43:09;;;;;;;981.27;883.57;;;2.10;99.90;;;;;;5011726;28;21375;-74
2023/12/06 03:45:36;;;;;;;990.23;890.13;;;2.00;99.90;;;;;;5011691;28;20550;-75
2023/12/06 03:48:03;;;;;;;1003.10;902.20;;;2.10;99.90;;;;;;5011684;28;20492;-75
2023/12/06 03:50:30;;;;;;;1002.53;901.17;;;2.10;99.90;;;;;;5011757;28;20464;-74
2023/12/06 03:52:58;;;;;;;999.30;898.00;;;2.10;99.90;;;;;;5012011;28;20450;-75
2023/12/06 03:55:25;;;;;;;981.83;881.50;;;2.10;99.90;;;;;;5011560;28;20452;-75
2023/12/06 03:57:52;;;;;;;978.07;879.23;;;2.10;99.90;;;;;;5011588;28;20953;-74
2023/12/06 04:00:19;;;;;;;979.90;882.33;;;2.10;99.90;;;;;;5011688;28;20455;-75
2023/12/06 04:02:46;;;;;;;987.30;887.20;;;2.20;99.90;;;;;;5011274;28;20825;-75
2023/12/06 04:05:13;;;;;;;988.33;885.80;;;2.10;99.90;;;;;;5011575;28;20482;-74
2023/12/06 04:07:40;;;;;;;979.80;877.90;;;2.20;99.90;;;;;;5011814;28;20526;-74
2023/12/06 04:10:09;;;;;;;995.00;894.10;;;2.20;99.90;;;;;;5011291;28;20529;-74
2023/12/06 04:12:36;;;;;;;997.10;895.10;;;2.20;99.90;;;;;;5011189;28;20454;-74
2023/12/06 04:15:04;;;;;;;986.20;886.37;;;2.20;99.90;;;;;;5011603;28;20537;-74
2023/12/06 04:17:31;;;;;;;964.93;863.90;;;2.20;99.90;;;;;;5011221;28;20451;-74
2023/12/06 04:19:58;;;;;;;964.10;862.50;;;2.30;99.90;;;;;;5011253;28;20462;-73
2023/12/06 04:22:25;;;;;;;991.73;890.77;;;2.30;99.90;;;;;;5010969;28;20470;-73
2023/12/06 04:24:53;;;;;;;978.33;874.27;;;2.30;99.90;;;;;;5011348;28;20460;-74
2023/12/06 04:27:21;;;;;;;993.70;890.90;;;2.30;99.90;;;;;;5011386;28;20887;-74
2023/12/06 04:29:48;;;;;;;961.40;859.77;;;2.30;99.90;;;;;;5011377;28;20461;-74
2023/12/06 04:32:15;;;;;;;964.27;861.93;;;2.30;99.90;;;;;;5011472;28;20460;-74
2023/12/06 04:34:48;;;;;;;960.40;858.30;;;2.30;99.90;;;;;;5013228;28;21013;-74
2023/12/06 04:37:15;;;;;;;955.87;853.07;;;2.40;99.90;;;;;;5014749;28;20909;-74
2023/12/06 04:39:42;;;;;;;960.53;860.73;;;2.40;99.90;;;;;;5014987;28;21018;-74
2023/12/06 04:42:09;;;;;;;956.93;855.60;;;2.40;99.90;;;;;;5014615;28;20448;-74
2023/12/06 04:44:38;;;;;;;961.73;860.93;;;2.40;99.90;;;;;;5014804;28;20461;-73
2023/12/06 04:47:05;;;;;;;960.53;860.23;;;2.40;99.90;;;;;;5014539;28;20488;-76
2023/12/06 04:49:32;;;;;;;952.43;854.87;;;2.40;99.90;;;;;;5014536;28;20455;-76
2023/12/06 04:52:00;;;;;;;955.93;856.87;;;2.50;99.90;;;;;;5014640;28;20478;-75
2023/12/06 04:54:27;;;;;;;958.57;860.97;;;2.50;99.90;;;;;;5014926;28;20450;-75
2023/12/06 04:56:54;;;;;;;957.90;859.53;;;2.40;99.90;;;;;;5014460;28;20537;-75
2023/12/06 04:59:21;;;;;;;952.73;854.83;;;2.50;99.90;;;;;;5014515;28;20539;-75
2023/12/06 05:01:49;;;;;;;957.23;860.73;;;2.50;99.90;;;;;;5014242;28;20451;-75
2023/12/06 05:04:16;;;;;;;953.87;858.33;;;2.50;99.90;;;;;;5014270;28;20581;-75
2023/12/06 05:06:43;;;;;;;943.13;847.73;;;2.50;99.90;;;;;;5014508;28;20547;-75
2023/12/06 05:09:11;;;;;;;925.27;830.17;;;2.50;99.90;;;;;;5014354;28;20466;-75
2023/12/06 05:11:38;;;;;;;959.03;862.33;;;2.50;99.90;;;;;;5014041;28;20452;-75
2023/12/06 05:14:05;;;;;;;920.90;825.77;;;2.60;99.90;;;;;;5014248;28;20449;-75
2023/12/06 05:16:32;;;;;;;928.10;834.40;;;2.60;99.90;;;;;;5014144;28;20547;-75
2023/12/06 05:19:00;;;;;;;927.40;835.00;;;2.60;99.90;;;;;;5012825;28;20450;-75
2023/12/06 05:21:27;;;;;;;924.27;831.10;;;2.60;99.90;;;;;;5013690;28;20451;-76
2023/12/06 05:23:54;;;;;;;917.13;825.33;;;2.60;99.90;;;;;;5013238;28;20476;-75
2023/12/06 05:26:23;;;;;;;914.77;825.03;;;2.60;99.90;;;;;;5012869;28;20462;-75
2023/12/06 05:28:50;;;;;;;912.03;822.10;;;2.60;99.90;;;;;;5011887;28;20481;-75
2023/12/06 05:31:23;;;;;;;910.30;821.50;;;2.60;99.90;;;;;;5012939;28;20455;-75
2023/12/06 05:33:50;;;;;;;904.57;816.37;;;2.60;99.90;;;;;;5013474;28;20460;-76
2023/12/06 05:36:18;;;;;;;900.10;810.90;;;2.60;99.90;;;;;;5013349;28;20455;-76
2023/12/06 05:38:45;;;;;;;885.47;797.57;;;2.60;99.90;;;;;;5012894;28;20476;-75
2023/12/06 05:41:12;;;;;;;877.37;790.27;;;2.60;99.90;;;;;;5012845;28;20456;-75
2023/12/06 05:43:39;;;;;;;891.77;804.40;;;2.60;99.90;;;;;;5013092;28;20460;-75
2023/12/06 05:46:07;;;;;;;888.17;800.57;;;2.60;99.90;;;;;;5012617;28;20460;-75
2023/12/06 05:48:34;;;;;;;904.37;816.53;;;2.60;99.90;;;;;;5013223;28;20856;-76
2023/12/06 05:51:01;;;;;;;894.20;805.53;;;2.60;99.90;;;;;;5013399;28;20467;-75
2023/12/06 05:53:30;;;;;;;896.87;809.53;;;2.70;99.90;;;;;;5013446;28;20976;-75
2023/12/06 05:55:57;;;;;;;900.13;811.93;;;2.70;99.90;;;;;;5013143;28;20525;-76
2023/12/06 05:58:24;;;;;;;909.77;821.43;;;2.70;99.90;;;;;;5013008;28;20461;-75
2023/12/06 06:00:51;;;;;;;907.23;818.93;;;2.70;99.90;;;;;;5013009;28;20546;-75
2023/12/06 06:03:18;;;;;;;931.50;842.47;;;2.70;99.90;;;;;;5013267;28;20488;-75
2023/12/06 06:05:45;;;;;;;939.07;850.27;;;2.70;99.90;;;;;;5013323;28;20456;-76
2023/12/06 06:08:12;;;;;;;919.37;831.43;;;2.70;99.90;;;;;;5005398;28;20464;-76
2023/12/06 06:10:40;;;;;;;911.57;825.03;;;2.70;99.90;;;;;;4993474;28;20461;-76
2023/12/06 06:13:07;;;;;;;920.50;833.70;;;2.70;99.90;;;;;;4993393;28;20465;-76
2023/12/06 06:15:34;;;;;;;932.07;843.37;;;2.80;99.90;;;;;;4993592;28;20458;-76
2023/12/06 06:18:03;;;;;;;943.13;854.37;;;2.70;99.90;;;;;;4993353;28;20640;-76
2023/12/06 06:20:29;;;;;;;943.87;854.87;;;2.80;99.90;;;;;;4993414;28;20940;-76
2023/12/06 06:22:56;;;;;;;947.63;859.03;;;2.80;99.90;;;;;;4993146;28;20546;-76
2023/12/06 06:25:24;;;;;;;952.27;863.67;;;2.80;99.90;;;;;;4993075;28;20456;-76
2023/12/06 06:27:52;;;;;;;957.80;868.90;;;2.80;99.90;;;;;;4992907;28;20535;-76
2023/12/06 06:30:19;;;;;;;961.90;873.03;;;2.80;99.90;;;;;;4993384;28;20479;-76
2023/12/06 06:32:46;;;;;;;946.00;858.80;;;2.80;99.90;;;;;;4992849;28;20451;-76
2023/12/06 06:35:13;;;;;;;946.00;857.70;;;2.90;99.90;;;;;;4992663;28;20817;-76
2023/12/06 06:37:40;;;;;;;954.77;866.37;;;2.90;99.90;;;;;;4992495;28;20925;-76
2023/12/06 06:40:08;;;;;;;943.20;856.20;;;2.80;99.90;;;;;;4992481;28;20460;-76
2023/12/06 06:42:35;;;;;;;949.80;863.07;;;2.90;99.90;;;;;;4992609;28;20891;-76
2023/12/06 06:45:05;;;;;;;960.27;873.30;;;2.90;99.90;;;;;;4992145;28;20462;-76
2023/12/06 06:47:32;;;;;;;955.30;868.70;;;2.90;99.90;;;;;;4992341;28;20448;-76
2023/12/06 06:49:59;;;;;;;944.57;858.40;;;2.90;99.90;;;;;;4992568;28;20460;-75
2023/12/06 06:52:26;;;;;;;948.10;862.67;;;2.90;99.90;;;;;;4992084;28;20454;-76
2023/12/06 06:54:54;;;;;;;947.57;861.30;;;2.90;99.90;;;;;;4992749;28;20813;-76
2023/12/06 06:57:21;;;;;;;952.33;865.33;;;2.90;99.90;;;;;;4991941;28;20536;-76
2023/12/06 06:59:48;;;;;;;939.80;852.70;;;2.90;99.90;;;;;;4992725;28;20564;-76
2023/12/06 07:02:16;;;;;;;946.63;860.07;;;2.90;99.90;;;;;;4992305;28;20450;-76
2023/12/06 07:04:43;;;;;;;957.97;871.07;;;2.90;99.90;;;;;;4992564;28;20977;-76
2023/12/06 07:07:10;;;;;;;930.73;844.67;;;3.00;99.90;;;;;;4992152;28;20965;-76
2023/12/06 07:09:38;;;;;;;949.07;864.13;;;3.00;99.90;;;;;;4991986;28;21002;-76
2023/12/06 07:12:06;;;;;;;947.50;862.33;;;3.00;99.90;;;;;;4992127;28;20462;-76
2023/12/06 07:14:33;;;;;;;947.87;862.23;;;3.00;99.90;;;;;;4992592;28;20463;-76
2023/12/06 07:16:59;;;;;;;956.17;871.27;;;3.00;99.90;;;;;;4992333;28;20461;-76
2023/12/06 07:19:28;;;;;;;951.50;865.03;;;3.10;99.90;;;;;;4992217;28;20544;-76
2023/12/06 07:21:54;;;;;;;940.10;855.20;;;3.10;99.90;;;;;;4992094;28;20455;-74
2023/12/06 07:24:21;;;;;;;946.50;860.50;;;3.10;99.90;;;;;;4992617;28;20456;-73
2023/12/06 07:26:48;;;;;;;948.27;862.13;;;3.10;99.90;;;;;;4992231;28;20883;-73
2023/12/06 07:29:15;;;;;;;960.93;874.77;;;3.10;99.90;;;;;;4991863;28;20481;-73
2023/12/06 07:31:42;;;;;;;951.63;866.43;;;3.10;99.90;;;;;;4991916;28;20532;-73
2023/12/06 07:34:10;;;;;;;945.10;859.30;;;3.10;99.90;;;;;;4993552;28;20847;-73
2023/12/06 07:36:38;;;;;;;942.97;856.37;;;3.10;99.90;;;;;;5011153;28;20471;-73
2023/12/06 07:39:07;;;;;;;954.10;867.67;;;3.20;99.90;;;;;;5011292;28;20511;-73
2023/12/06 07:41:34;;;;;;;962.37;875.20;;;3.20;99.90;;;;;;5010409;28;20462;-73
2023/12/06 07:44:00;;;;;;;945.57;860.43;;;3.20;99.90;;;;;;5010877;28;20463;-73
2023/12/06 07:46:27;;;;;;;953.90;868.37;;;3.20;99.90;;;;;;5010650;28;20449;-73
2023/12/06 07:48:53;;;;;;;947.20;861.10;;;3.30;99.90;;;;;;5010513;28;20491;-73
2023/12/06 07:51:20;;;;;;;953.53;868.47;;;3.30;99.90;;;;;;5010527;28;20460;-74
2023/12/06 07:53:48;;;;;;;952.80;866.30;;;3.30;99.90;;;;;;5010712;28;20500;-73
2023/12/06 07:56:16;;;;;;;955.20;870.93;;;3.30;99.90;;;;;;5010500;28;20448;-74
2023/12/06 07:58:43;;;;;;;953.83;867.37;;;3.30;99.90;;;;;;5010677;28;20456;-73
2023/12/06 08:01:09;;;;;;;955.90;869.60;;;3.40;99.90;;;;;;5009956;28;20459;-74
2023/12/06 08:03:36;;;;;;;952.77;867.97;;;3.40;99.90;;;;;;5010434;28;20464;-73
2023/12/06 08:06:05;;;;;;;944.60;860.30;;;3.40;99.90;;;;;;5010616;28;20559;-74
2023/12/06 08:08:33;;;;;;;967.47;882.07;;;3.50;99.90;;;;;;5011277;28;20535;-73
2023/12/06 08:11:02;;;;;;;973.13;886.80;;;3.50;99.90;;;;;;5014064;28;20547;-73
2023/12/06 08:13:29;;;;;;;977.87;892.87;;;3.50;99.90;;;;;;5013712;28;20936;-73
2023/12/06 08:15:56;;;;;;;975.67;890.07;;;3.50;99.90;;;;;;5013457;28;20467;-74
2023/12/06 08:18:23;;;;;;;978.07;891.47;;;3.50;99.90;;;;;;5014848;28;20448;-74
2023/12/06 08:20:50;;;;;;;980.80;893.00;;;3.50;99.90;;;;;;5014335;28;20480;-74
2023/12/06 08:23:17;;;;;;;975.47;887.95;;;3.60;99.90;;;;;;5013948;28;20454;-74
2023/12/06 08:25:44;;;;;;;979.47;891.08;;;3.60;99.90;;;;;;5013880;28;20478;-74
2023/12/06 08:28:12;;;;;;;986.60;901.53;;;3.60;99.90;;;;;;5014978;28;20406;-74
2023/12/06 08:30:39;;;;;;;981.03;897.20;;;3.60;99.90;;;;;;5015020;28;20463;-74
2023/12/06 08:33:07;;;;;;;979.23;895.43;;;3.70;99.90;;;;;;5014716;28;20661;-74
2023/12/06 08:35:33;;;;;;;970.27;886.93;;;3.70;99.90;;;;;;5014798;28;20515;-74
2023/12/06 08:38:00;;;;;;;963.03;880.97;;;3.70;99.90;;;;;;5014902;28;20452;-74
2023/12/06 08:40:29;;;;;;;968.70;886.90;;;3.70;99.90;;;;;;5014712;28;20452;-74
2023/12/06 08:42:55;;;;;;;965.77;883.87;;;3.80;99.90;;;;;;5014306;28;20536;-74
2023/12/06 08:45:24;;;;;;;974.37;892.30;;;3.80;99.90;;;;;;5014658;28;20465;-74
2023/12/06 08:47:51;;;;;;;979.97;897.10;;;3.80;99.90;;;;;;5014623;28;20459;-74
2023/12/06 08:50:18;;;;;;;978.40;895.00;;;3.80;99.90;;;;;;5014727;28;20538;-74
2023/12/06 08:52:45;;;;;;;974.00;892.10;;;3.80;99.90;;;;;;5014412;28;20480;-74
2023/12/06 08:55:12;;;;;;;983.43;900.43;;;3.90;99.90;;;;;;5014431;28;20452;-74
2023/12/06 08:57:39;;;;;;;980.17;898.00;;;3.90;99.90;;;;;;5014435;28;20495;-74
2023/12/06 09:00:07;;;;;;;973.60;890.90;;;3.90;99.90;;;;;;5014460;28;20446;-74
2023/12/06 09:02:37;;;;;;;973.13;889.90;;;3.90;99.90;;;;;;5014435;28;20459;-74
2023/12/06 09:05:04;;;;;;;976.90;893.83;;;3.90;99.90;;;;;;5014391;28;20451;-74
2023/12/06 09:07:31;;;;;;;971.83;887.83;;;4.00;99.90;;;;;;5014210;28;20460;-74
2023/12/06 09:09:58;;;;;;;973.10;890.60;;;4.00;99.90;;;;;;5014065;28;20480;-74
2023/12/06 09:12:24;;;;;;;982.67;899.70;;;4.00;99.90;;;;;;5013915;28;20939;-74
2023/12/06 09:14:51;;;;;;;966.43;884.13;;;4.00;99.90;;;;;;5014083;28;20465;-74
2023/12/06 09:17:18;;;;;;;975.40;893.90;;;4.00;99.90;;;;;;5014090;28;20463;-74
2023/12/06 09:19:46;;;;;;;975.17;894.47;;;4.10;99.90;;;;;;5013583;28;20678;-74
2023/12/06 09:22:15;;;;;;;974.73;894.50;;;4.10;99.90;;;;;;5013458;28;20511;-75
2023/12/06 09:24:42;;;;;;;978.27;896.87;;;4.10;99.90;;;;;;5014331;28;20460;-76
2023/12/06 09:27:10;;;;;;;977.63;897.20;;;4.10;99.90;;;;;;5013690;28;20453;-76
2023/12/06 09:29:37;;;;;;;982.97;902.10;;;4.10;99.90;;;;;;5013969;28;21042;-77
2023/12/06 09:32:04;;;;;;;969.87;890.27;;;4.10;99.90;;;;;;5013429;28;20512;-76
2023/12/06 09:34:31;;;;;;;978.97;899.67;;;4.10;99.90;;;;;;5013667;28;20548;-76
2023/12/06 09:36:59;;;;;;;972.97;893.80;;;4.20;99.90;;;;;;5013556;28;20503;-76
2023/12/06 09:39:26;;;;;;;966.17;888.50;;;4.20;99.90;;;;;;5013930;28;20445;-76
2023/12/06 09:41:53;;;;;;;964.23;885.73;;;4.30;99.90;;;;;;5013418;28;20452;-76
2023/12/06 09:44:20;;;;;;;964.17;887.23;;;4.30;99.90;;;;;;5013662;28;20459;-77
2023/12/06 09:46:49;;;;;;;957.87;881.77;;;4.30;99.90;;;;;;5013450;28;20543;-76
2023/12/06 09:49:16;;;;;;;959.07;883.90;;;4.30;99.90;;;;;;5013671;28;20921;-76
2023/12/06 09:51:43;;;;;;;940.27;866.30;;;4.40;99.90;;;;;;5013018;28;20449;-76
2023/12/06 09:54:11;;;;;;;947.33;874.37;;;4.40;99.90;;;;;;5013603;28;20453;-76
2023/12/06 09:56:38;;;;;;;938.40;865.87;;;4.40;99.90;;;;;;5013401;28;20826;-76
2023/12/06 09:59:05;;;;;;;947.47;875.57;;;4.40;99.90;;;;;;5013386;28;20831;-76
2023/12/06 10:01:32;;;;;;;929.17;860.30;;;4.50;99.90;;;;;;5013086;28;20454;-76
2023/12/06 10:03:59;;;;;;;934.20;866.50;;;4.50;99.90;;;;;;5013270;28;20528;-76
2023/12/06 10:06:26;;;;;;;936.80;870.03;;;4.50;99.90;;;;;;5013261;28;20584;-76
2023/12/06 10:08:55;;;;;;;940.00;874.30;;;4.60;99.90;;;;;;5013100;28;20477;-76
2023/12/06 10:11:25;;;;;;;936.93;875.50;;;4.70;99.90;;;;;;5013273;28;20511;-76
2023/12/06 10:13:53;;;;;;;915.03;856.50;;;4.70;99.90;;;;;;5013185;28;20454;-76
2023/12/06 10:16:21;;;;;;;902.63;846.67;;;4.70;99.90;;;;;;5012815;28;20957;-76
2023/12/06 10:18:52;;;;;;;902.70;846.50;;;4.70;99.90;;;;;;5012747;28;20458;-76
2023/12/06 10:21:20;;;;;;;906.53;850.93;;;4.80;99.90;;;;;;5012888;28;20496;-76
2023/12/06 10:23:54;;;;;;;897.87;845.23;;;4.80;99.90;;;;;;5012794;28;20458;-76
2023/12/06 10:26:21;;;;;;;883.93;833.20;;;4.80;99.90;;;;;;5012871;28;20457;-76
2023/12/06 10:28:49;;;;;;;884.33;832.10;;;4.80;99.90;;;;;;5012761;28;20483;-76
2023/12/06 10:31:16;;;;;;;877.47;826.03;;;4.80;99.90;;;;;;5012274;28;20545;-77
2023/12/06 10:33:43;;;;;;;880.97;829.70;;;4.80;99.90;;;;;;5012621;28;20522;-77
2023/12/06 10:36:12;;;;;;;883.70;832.40;;;4.90;99.90;;;;;;5012786;28;20449;-76
2023/12/06 10:38:42;;;;;;;890.57;839.07;;;4.90;99.90;;;;;;5012699;28;20549;-77
2023/12/06 10:41:10;;;;;;;898.23;846.50;;;4.90;99.90;;;;;;5012409;28;20453;-77
2023/12/06 10:43:39;;;;;;;885.93;836.10;;;4.90;99.90;;;;;;5012422;28;20464;-76
2023/12/06 10:46:09;;;;;;;870.27;821.73;;;4.90;99.90;;;;;;5012684;28;20450;-76
2023/12/06 10:48:38;;;;;;;852.20;805.20;;;4.90;99.90;;;;;;5012254;28;20460;-77
2023/12/06 10:51:06;;;;;;;839.23;793.80;;;4.90;99.90;;;;;;5012354;28;20512;-76
2023/12/06 10:53:33;;;;;;;844.80;798.17;;;4.90;99.90;;;;;;5012341;28;20453;-77
2023/12/06 10:56:01;;;;;;;843.23;797.73;;;4.90;99.90;;;;;;5012632;28;20457;-76
2023/12/06 10:58:29;;;;;;;837.63;794.03;;;4.90;99.90;;;;;;5012477;28;20457;-76
2023/12/06 11:00:56;;;;;;;838.83;794.43;;;4.90;99.90;;;;;;5011995;28;20973;-76
2023/12/06 11:03:24;;;;;;;805.43;764.87;;;5.00;99.90;;;;;;5012401;28;20453;-76
2023/12/06 11:05:54;;;;;;;827.83;784.03;;;5.00;99.90;;;;;;5012025;28;20452;-77
2023/12/06 11:08:48;;;;;;;789.13;749.03;;;5.10;99.90;;;;;;5012232;28;20467;-77
2023/12/06 11:11:45;;;;;;;805.57;764.43;;;5.20;99.90;;;;;;5011885;28;20452;-77
2023/12/06 11:14:31;;;;;;;791.90;751.97;;;5.30;99.90;;;;;;5012235;28;20513;-77
2023/12/06 11:17:17;;;;;;;741.47;705.57;;;5.40;99.90;;;;;;5011798;28;20452;-76
2023/12/06 11:19:45;;;;;;;679.10;647.77;;;5.50;99.90;;;;;;5011772;28;20450;-77
2023/12/06 11:22:13;;;;;;;687.00;654.33;;;5.50;99.90;;;;;;5010997;28;20933;-77
2023/12/06 11:24:40;;;;;;;608.73;581.03;;;5.50;99.90;;;;;;5011671;28;20450;-76
2023/12/06 11:27:08;;;;;;;519.00;497.10;;;5.60;99.90;;;;;;5011690;28;20558;-77
2023/12/06 11:29:35;;;;;;;565.40;540.70;;;5.60;99.90;;;;;;5011419;28;20872;-77
2023/12/06 11:32:02;;;;;;;487.87;466.90;;;5.70;99.90;;;;;;5011590;28;20554;-76
2023/12/06 11:34:34;;;;;;;438.77;420.80;;;5.70;99.90;;;;;;5011650;28;20546;-77
2023/12/06 11:37:07;;;;;;;403.37;387.17;;;5.80;99.90;;;;;;5011663;28;20487;-77
2023/12/06 11:39:34;;;;;;;353.73;340.07;;;5.90;99.90;;;;;;5008987;28;20870;-77
2023/12/06 11:42:02;;;;;;;250.77;239.77;;;5.90;99.90;;;;;;5010369;28;20530;-76
2023/12/06 11:44:28;;;;;;;244.70;234.37;;;5.90;99.90;;;;;;5013500;28;20545;-77
2023/12/06 11:46:56;;;;;;;264.67;253.37;;;6.00;99.90;;;;;;5014874;28;20460;-77
2023/12/06 11:49:24;;;;;;;224.30;214.50;;;6.00;99.90;;;;;;5014871;28;20479;-77
2023/12/06 11:51:55;;;;;;;179.03;170.40;;;6.00;99.90;;;;;;5015002;28;20542;-76
2023/12/06 11:54:24;;;;;;;188.17;178.83;;;6.10;99.90;;;;;;5015452;28;20934;-76
2023/12/06 11:56:54;;;;;;;174.67;166.13;;;6.10;99.90;;;;;;5015193;28;20456;-76
2023/12/06 11:59:22;;;;;;;181.80;173.53;;;6.10;99.90;;;;;;5015137;28;20447;-76
2023/12/06 12:01:49;;;;;;;127.33;119.83;;;6.20;99.90;;;;;;5015120;28;20456;-76
2023/12/06 12:04:16;;;;;;;85.37;79.33;;;6.40;99.90;;;;;;5015179;28;20464;-77
2023/12/06 12:06:43;;;;;;;115.70;109.30;;;6.50;99.90;;;;;;5014879;28;20459;-76
2023/12/06 12:09:13;;;;;;;117.00;110.70;;;6.50;99.90;;;;;;5015185;28;20550;-76
2023/12/06 12:11:45;;;;;;;54.80;50.33;;;6.60;99.90;;;;;;5015293;28;20449;-76
2023/12/06 12:14:12;;;;;;;43.43;39.30;;;6.50;99.90;;;;;;5015723;28;20499;-76
2023/12/06 12:16:39;;;;;;;35.20;29.30;;;6.30;99.90;;;;;;5015271;28;20509;-76
2023/12/06 12:19:06;;;;;;;34.73;31.30;;;6.20;99.90;;;;;;5015277;28;20867;-76